sensor_id;sensor_type;location;lat;lon;timestamp;P1;durP1;ratioP1;P2;durP2;ratioP2
61962;SDS011;47927;42.646;23.096;2022-09-21T00:00:38;2.58;;;1.30;;
61962;SDS011;47927;42.646;23.096;2022-09-21T00:03:03;1.98;;;1.00;;
61962;SDS011;47927;42.646;23.096;2022-09-21T00:05:29;3.60;;;0.93;;
61962;SDS011;47927;42.646;23.096;2022-09-21T00:07:58;1.85;;;0.98;;
61962;SDS011;47927;42.646;23.096;2022-09-21T00:10:29;3.15;;;1.02;;
61962;SDS011;47927;42.646;23.096;2022-09-21T00:12:55;1.40;;;0.98;;
61962;SDS011;47927;42.646;23.096;2022-09-21T00:15:22;2.30;;;1.33;;
61962;SDS011;47927;42.646;23.096;2022-09-21T00:17:50;2.05;;;1.05;;
61962;SDS011;47927;42.646;23.096;2022-09-21T00:20:17;1.75;;;0.98;;
61962;SDS011;47927;42.646;23.096;2022-09-21T00:22:44;1.50;;;0.93;;
61962;SDS011;47927;42.646;23.096;2022-09-21T00:25:12;2.25;;;1.25;;
61962;SDS011;47927;42.646;23.096;2022-09-21T00:27:38;2.88;;;1.25;;
61962;SDS011;47927;42.646;23.096;2022-09-21T00:30:03;2.08;;;1.20;;
61962;SDS011;47927;42.646;23.096;2022-09-21T00:32:30;2.10;;;1.00;;
61962;SDS011;47927;42.646;23.096;2022-09-21T00:34:57;1.90;;;0.93;;
61962;SDS011;47927;42.646;23.096;2022-09-21T00:37:22;3.58;;;1.20;;
61962;SDS011;47927;42.646;23.096;2022-09-21T00:39:48;2.15;;;1.00;;
61962;SDS011;47927;42.646;23.096;2022-09-21T00:42:18;3.35;;;1.15;;
61962;SDS011;47927;42.646;23.096;2022-09-21T00:44:45;2.70;;;1.23;;
61962;SDS011;47927;42.646;23.096;2022-09-21T00:47:11;1.27;;;0.80;;
61962;SDS011;47927;42.646;23.096;2022-09-21T00:49:41;1.63;;;0.90;;
61962;SDS011;47927;42.646;23.096;2022-09-21T00:52:10;1.90;;;1.00;;
61962;SDS011;47927;42.646;23.096;2022-09-21T00:54:41;2.28;;;1.20;;
61962;SDS011;47927;42.646;23.096;2022-09-21T00:57:11;1.42;;;0.75;;
61962;SDS011;47927;42.646;23.096;2022-09-21T00:59:38;3.38;;;1.25;;
61962;SDS011;47927;42.646;23.096;2022-09-21T01:02:05;2.88;;;1.08;;
61962;SDS011;47927;42.646;23.096;2022-09-21T01:04:30;1.67;;;1.00;;
61962;SDS011;47927;42.646;23.096;2022-09-21T01:06:57;2.50;;;1.00;;
61962;SDS011;47927;42.646;23.096;2022-09-21T01:09:25;2.20;;;1.23;;
61962;SDS011;47927;42.646;23.096;2022-09-21T01:15:11;3.05;;;1.05;;
61962;SDS011;47927;42.646;23.096;2022-09-21T01:31:39;2.30;;;1.00;;
61962;SDS011;47927;42.646;23.096;2022-09-21T01:34:28;1.52;;;0.88;;
61962;SDS011;47927;42.646;23.096;2022-09-21T01:37:01;1.20;;;0.80;;
61962;SDS011;47927;42.646;23.096;2022-09-21T01:39:32;1.95;;;0.88;;
61962;SDS011;47927;42.646;23.096;2022-09-21T01:42:02;1.27;;;0.73;;
61962;SDS011;47927;42.646;23.096;2022-09-21T01:44:30;2.03;;;0.88;;
61962;SDS011;47927;42.646;23.096;2022-09-21T01:46:59;2.20;;;1.15;;
61962;SDS011;47927;42.646;23.096;2022-09-21T01:49:48;1.63;;;1.02;;
61962;SDS011;47927;42.646;23.096;2022-09-21T01:52:25;1.10;;;0.73;;
61962;SDS011;47927;42.646;23.096;2022-09-21T01:54:59;1.77;;;0.93;;
61962;SDS011;47927;42.646;23.096;2022-09-21T02:00:07;1.35;;;0.90;;
61962;SDS011;47927;42.646;23.096;2022-09-21T02:05:14;2.28;;;1.00;;
61962;SDS011;47927;42.646;23.096;2022-09-21T02:07:41;1.50;;;0.75;;
61962;SDS011;47927;42.646;23.096;2022-09-21T02:10:08;1.67;;;0.98;;
61962;SDS011;47927;42.646;23.096;2022-09-21T02:12:38;2.08;;;0.77;;
61962;SDS011;47927;42.646;23.096;2022-09-21T02:15:04;5.40;;;0.90;;
61962;SDS011;47927;42.646;23.096;2022-09-21T02:31:14;1.77;;;0.90;;
61962;SDS011;47927;42.646;23.096;2022-09-21T02:34:00;1.23;;;0.75;;
61962;SDS011;47927;42.646;23.096;2022-09-21T02:36:38;1.85;;;0.75;;
61962;SDS011;47927;42.646;23.096;2022-09-21T02:39:18;1.60;;;0.80;;
61962;SDS011;47927;42.646;23.096;2022-09-21T02:42:13;3.03;;;0.90;;
61962;SDS011;47927;42.646;23.096;2022-09-21T02:44:45;1.63;;;0.85;;
61962;SDS011;47927;42.646;23.096;2022-09-21T02:47:45;2.25;;;0.95;;
61962;SDS011;47927;42.646;23.096;2022-09-21T02:50:19;1.23;;;0.70;;
61962;SDS011;47927;42.646;23.096;2022-09-21T02:52:50;1.52;;;0.90;;
61962;SDS011;47927;42.646;23.096;2022-09-21T02:55:18;3.08;;;1.27;;
61962;SDS011;47927;42.646;23.096;2022-09-21T02:57:45;1.85;;;0.90;;
61962;SDS011;47927;42.646;23.096;2022-09-21T03:00:13;2.05;;;1.20;;
61962;SDS011;47927;42.646;23.096;2022-09-21T03:02:41;6.93;;;1.17;;
61962;SDS011;47927;42.646;23.096;2022-09-21T03:05:09;2.88;;;0.93;;
61962;SDS011;47927;42.646;23.096;2022-09-21T03:07:36;2.00;;;0.95;;
61962;SDS011;47927;42.646;23.096;2022-09-21T03:10:01;1.52;;;0.80;;
61962;SDS011;47927;42.646;23.096;2022-09-21T03:12:28;2.13;;;1.20;;
61962;SDS011;47927;42.646;23.096;2022-09-21T03:14:54;2.03;;;0.80;;
61962;SDS011;47927;42.646;23.096;2022-09-21T03:17:20;0.90;;;0.60;;
61962;SDS011;47927;42.646;23.096;2022-09-21T03:19:45;2.40;;;1.05;;
61962;SDS011;47927;42.646;23.096;2022-09-21T03:22:11;1.60;;;0.95;;
61962;SDS011;47927;42.646;23.096;2022-09-21T03:24:36;1.48;;;0.90;;
61962;SDS011;47927;42.646;23.096;2022-09-21T03:27:12;2.25;;;1.08;;
61962;SDS011;47927;42.646;23.096;2022-09-21T03:29:44;1.85;;;0.98;;
61962;SDS011;47927;42.646;23.096;2022-09-21T03:32:11;3.13;;;1.42;;
61962;SDS011;47927;42.646;23.096;2022-09-21T03:34:38;2.80;;;1.10;;
61962;SDS011;47927;42.646;23.096;2022-09-21T03:37:04;1.27;;;0.70;;
61962;SDS011;47927;42.646;23.096;2022-09-21T03:39:30;2.90;;;1.17;;
61962;SDS011;47927;42.646;23.096;2022-09-21T03:41:56;1.85;;;0.85;;
61962;SDS011;47927;42.646;23.096;2022-09-21T03:44:22;2.92;;;1.05;;
61962;SDS011;47927;42.646;23.096;2022-09-21T03:46:48;2.13;;;0.80;;
61962;SDS011;47927;42.646;23.096;2022-09-21T03:49:18;0.95;;;0.70;;
61962;SDS011;47927;42.646;23.096;2022-09-21T03:51:44;2.28;;;1.08;;
61962;SDS011;47927;42.646;23.096;2022-09-21T03:54:09;1.60;;;0.95;;
61962;SDS011;47927;42.646;23.096;2022-09-21T03:56:35;3.90;;;0.93;;
61962;SDS011;47927;42.646;23.096;2022-09-21T03:59:01;2.17;;;1.13;;
61962;SDS011;47927;42.646;23.096;2022-09-21T04:01:27;3.13;;;1.40;;
61962;SDS011;47927;42.646;23.096;2022-09-21T04:03:52;2.45;;;1.30;;
61962;SDS011;47927;42.646;23.096;2022-09-21T04:06:18;2.55;;;1.23;;
61962;SDS011;47927;42.646;23.096;2022-09-21T04:08:44;3.50;;;1.33;;
61962;SDS011;47927;42.646;23.096;2022-09-21T04:11:10;2.85;;;1.40;;
61962;SDS011;47927;42.646;23.096;2022-09-21T04:13:36;3.35;;;1.70;;
61962;SDS011;47927;42.646;23.096;2022-09-21T04:16:02;4.97;;;1.55;;
61962;SDS011;47927;42.646;23.096;2022-09-21T04:18:28;3.90;;;1.30;;
61962;SDS011;47927;42.646;23.096;2022-09-21T04:20:53;4.88;;;1.30;;
61962;SDS011;47927;42.646;23.096;2022-09-21T04:23:19;1.77;;;0.90;;
61962;SDS011;47927;42.646;23.096;2022-09-21T04:25:46;2.70;;;1.20;;
61962;SDS011;47927;42.646;23.096;2022-09-21T04:28:15;2.40;;;1.10;;
61962;SDS011;47927;42.646;23.096;2022-09-21T04:30:41;2.05;;;1.08;;
61962;SDS011;47927;42.646;23.096;2022-09-21T04:33:07;1.95;;;1.15;;
61962;SDS011;47927;42.646;23.096;2022-09-21T04:35:32;2.85;;;1.10;;
61962;SDS011;47927;42.646;23.096;2022-09-21T04:38:16;1.92;;;0.90;;
61962;SDS011;47927;42.646;23.096;2022-09-21T04:40:42;2.47;;;0.90;;
61962;SDS011;47927;42.646;23.096;2022-09-21T04:43:07;1.27;;;0.80;;
61962;SDS011;47927;42.646;23.096;2022-09-21T04:45:33;3.67;;;1.17;;
61962;SDS011;47927;42.646;23.096;2022-09-21T04:47:59;1.48;;;0.80;;
61962;SDS011;47927;42.646;23.096;2022-09-21T04:50:25;4.57;;;1.02;;
61962;SDS011;47927;42.646;23.096;2022-09-21T04:53:01;1.98;;;0.88;;
61962;SDS011;47927;42.646;23.096;2022-09-21T04:55:27;1.33;;;0.82;;
61962;SDS011;47927;42.646;23.096;2022-09-21T04:57:52;4.80;;;1.63;;
61962;SDS011;47927;42.646;23.096;2022-09-21T05:00:18;5.82;;;1.65;;
61962;SDS011;47927;42.646;23.096;2022-09-21T05:02:43;4.53;;;3.15;;
61962;SDS011;47927;42.646;23.096;2022-09-21T05:05:09;3.53;;;1.60;;
61962;SDS011;47927;42.646;23.096;2022-09-21T05:07:34;3.88;;;2.60;;
61962;SDS011;47927;42.646;23.096;2022-09-21T05:10:00;3.72;;;1.60;;
61962;SDS011;47927;42.646;23.096;2022-09-21T05:12:31;5.13;;;1.45;;
61962;SDS011;47927;42.646;23.096;2022-09-21T05:14:58;6.93;;;1.63;;
61962;SDS011;47927;42.646;23.096;2022-09-21T05:17:24;5.72;;;1.60;;
61962;SDS011;47927;42.646;23.096;2022-09-21T05:19:50;3.30;;;1.40;;
61962;SDS011;47927;42.646;23.096;2022-09-21T05:22:16;3.83;;;0.95;;
61962;SDS011;47927;42.646;23.096;2022-09-21T05:24:42;1.52;;;0.77;;
61962;SDS011;47927;42.646;23.096;2022-09-21T05:27:07;4.78;;;1.20;;
61962;SDS011;47927;42.646;23.096;2022-09-21T05:29:33;1.95;;;1.17;;
61962;SDS011;47927;42.646;23.096;2022-09-21T05:32:41;2.33;;;1.20;;
61962;SDS011;47927;42.646;23.096;2022-09-21T05:35:00;2.20;;;1.25;;
61962;SDS011;47927;42.646;23.096;2022-09-21T05:37:51;3.47;;;1.27;;
61962;SDS011;47927;42.646;23.096;2022-09-21T05:40:21;5.35;;;1.30;;
61962;SDS011;47927;42.646;23.096;2022-09-21T05:42:47;2.60;;;1.25;;
61962;SDS011;47927;42.646;23.096;2022-09-21T05:45:14;4.10;;;1.73;;
61962;SDS011;47927;42.646;23.096;2022-09-21T05:50:28;10.48;;;5.72;;
61962;SDS011;47927;42.646;23.096;2022-09-21T06:03:49;5.20;;;2.15;;
61962;SDS011;47927;42.646;23.096;2022-09-21T06:06:18;6.10;;;1.98;;
61962;SDS011;47927;42.646;23.096;2022-09-21T06:08:44;5.28;;;1.95;;
61962;SDS011;47927;42.646;23.096;2022-09-21T06:11:10;2.53;;;1.52;;
61962;SDS011;47927;42.646;23.096;2022-09-21T06:13:36;3.67;;;1.80;;
61962;SDS011;47927;42.646;23.096;2022-09-21T06:16:02;5.38;;;2.75;;
61962;SDS011;47927;42.646;23.096;2022-09-21T06:18:27;5.20;;;2.25;;
61962;SDS011;47927;42.646;23.096;2022-09-21T06:20:53;8.75;;;2.00;;
61962;SDS011;47927;42.646;23.096;2022-09-21T06:23:19;4.25;;;1.98;;
61962;SDS011;47927;42.646;23.096;2022-09-21T06:25:49;4.75;;;1.95;;
61962;SDS011;47927;42.646;23.096;2022-09-21T06:28:17;5.75;;;2.00;;
61962;SDS011;47927;42.646;23.096;2022-09-21T06:30:43;4.40;;;2.05;;
61962;SDS011;47927;42.646;23.096;2022-09-21T06:33:14;4.72;;;1.88;;
61962;SDS011;47927;42.646;23.096;2022-09-21T06:35:49;4.68;;;2.03;;
61962;SDS011;47927;42.646;23.096;2022-09-21T06:38:23;4.07;;;2.08;;
61962;SDS011;47927;42.646;23.096;2022-09-21T06:40:50;5.13;;;2.40;;
61962;SDS011;47927;42.646;23.096;2022-09-21T06:43:17;6.55;;;2.70;;
61962;SDS011;47927;42.646;23.096;2022-09-21T06:45:43;4.40;;;3.00;;
61962;SDS011;47927;42.646;23.096;2022-09-21T06:48:16;6.63;;;2.53;;
61962;SDS011;47927;42.646;23.096;2022-09-21T06:50:41;3.63;;;2.10;;
61962;SDS011;47927;42.646;23.096;2022-09-21T06:53:07;4.55;;;2.80;;
61962;SDS011;47927;42.646;23.096;2022-09-21T06:55:32;4.93;;;3.22;;
61962;SDS011;47927;42.646;23.096;2022-09-21T06:57:59;5.18;;;3.08;;
61962;SDS011;47927;42.646;23.096;2022-09-21T07:00:26;5.45;;;2.70;;
61962;SDS011;47927;42.646;23.096;2022-09-21T07:02:51;4.22;;;2.40;;
61962;SDS011;47927;42.646;23.096;2022-09-21T07:05:17;4.90;;;2.20;;
61962;SDS011;47927;42.646;23.096;2022-09-21T07:07:42;3.05;;;2.10;;
61962;SDS011;47927;42.646;23.096;2022-09-21T07:10:08;3.10;;;1.85;;
61962;SDS011;47927;42.646;23.096;2022-09-21T07:12:33;2.78;;;1.67;;
61962;SDS011;47927;42.646;23.096;2022-09-21T07:15:03;3.67;;;1.95;;
61962;SDS011;47927;42.646;23.096;2022-09-21T07:17:33;2.85;;;1.48;;
61962;SDS011;47927;42.646;23.096;2022-09-21T07:20:00;2.22;;;1.10;;
61962;SDS011;47927;42.646;23.096;2022-09-21T07:22:27;1.88;;;1.08;;
61962;SDS011;47927;42.646;23.096;2022-09-21T07:24:54;2.92;;;1.40;;
61962;SDS011;47927;42.646;23.096;2022-09-21T07:27:20;2.65;;;1.08;;
61962;SDS011;47927;42.646;23.096;2022-09-21T07:29:45;1.20;;;0.80;;
61962;SDS011;47927;42.646;23.096;2022-09-21T07:32:11;2.13;;;1.10;;
61962;SDS011;47927;42.646;23.096;2022-09-21T07:34:38;1.70;;;0.90;;
61962;SDS011;47927;42.646;23.096;2022-09-21T07:37:03;1.73;;;0.98;;
61962;SDS011;47927;42.646;23.096;2022-09-21T07:39:29;1.48;;;1.02;;
61962;SDS011;47927;42.646;23.096;2022-09-21T07:41:55;1.48;;;0.95;;
61962;SDS011;47927;42.646;23.096;2022-09-21T07:44:23;1.45;;;0.98;;
61962;SDS011;47927;42.646;23.096;2022-09-21T07:46:49;2.65;;;1.10;;
61962;SDS011;47927;42.646;23.096;2022-09-21T07:49:14;1.65;;;1.00;;
61962;SDS011;47927;42.646;23.096;2022-09-21T07:51:40;2.50;;;0.90;;
61962;SDS011;47927;42.646;23.096;2022-09-21T07:54:07;1.92;;;0.90;;
61962;SDS011;47927;42.646;23.096;2022-09-21T07:56:35;1.33;;;0.90;;
61962;SDS011;47927;42.646;23.096;2022-09-21T07:59:02;2.80;;;1.20;;
61962;SDS011;47927;42.646;23.096;2022-09-21T08:01:31;2.65;;;0.80;;
61962;SDS011;47927;42.646;23.096;2022-09-21T08:04:07;1.83;;;1.02;;
61962;SDS011;47927;42.646;23.096;2022-09-21T08:06:35;2.72;;;1.10;;
61962;SDS011;47927;42.646;23.096;2022-09-21T08:09:04;0.77;;;0.70;;
61962;SDS011;47927;42.646;23.096;2022-09-21T08:11:31;1.30;;;0.80;;
61962;SDS011;47927;42.646;23.096;2022-09-21T08:13:58;1.55;;;1.10;;
61962;SDS011;47927;42.646;23.096;2022-09-21T08:16:27;3.00;;;1.70;;
61962;SDS011;47927;42.646;23.096;2022-09-21T08:18:54;2.53;;;1.40;;
61962;SDS011;47927;42.646;23.096;2022-09-21T08:21:19;2.30;;;1.38;;
61962;SDS011;47927;42.646;23.096;2022-09-21T08:23:46;1.88;;;1.25;;
61962;SDS011;47927;42.646;23.096;2022-09-21T08:26:14;2.28;;;1.20;;
61962;SDS011;47927;42.646;23.096;2022-09-21T08:28:43;1.95;;;1.13;;
61962;SDS011;47927;42.646;23.096;2022-09-21T08:33:38;1.13;;;0.90;;
61962;SDS011;47927;42.646;23.096;2022-09-21T08:36:04;2.10;;;1.17;;
61962;SDS011;47927;42.646;23.096;2022-09-21T08:38:33;6.03;;;1.10;;
61962;SDS011;47927;42.646;23.096;2022-09-21T08:46:02;2.30;;;1.10;;
61962;SDS011;47927;42.646;23.096;2022-09-21T08:48:33;4.18;;;1.90;;
61962;SDS011;47927;42.646;23.096;2022-09-21T08:51:06;1.98;;;1.10;;
61962;SDS011;47927;42.646;23.096;2022-09-21T08:53:43;1.80;;;1.02;;
61962;SDS011;47927;42.646;23.096;2022-09-21T08:56:11;1.83;;;0.90;;
61962;SDS011;47927;42.646;23.096;2022-09-21T08:58:38;1.35;;;1.08;;
61962;SDS011;47927;42.646;23.096;2022-09-21T09:10:18;1.30;;;0.98;;
61962;SDS011;47927;42.646;23.096;2022-09-21T09:20:41;0.93;;;0.75;;
61962;SDS011;47927;42.646;23.096;2022-09-21T09:25:49;3.35;;;1.10;;
61962;SDS011;47927;42.646;23.096;2022-09-21T09:36:34;2.33;;;1.10;;
61962;SDS011;47927;42.646;23.096;2022-09-21T09:39:04;1.95;;;1.10;;
61962;SDS011;47927;42.646;23.096;2022-09-21T09:50:08;1.63;;;0.88;;
61962;SDS011;47927;42.646;23.096;2022-09-21T09:52:37;1.42;;;1.00;;
61962;SDS011;47927;42.646;23.096;2022-09-21T09:55:10;1.40;;;0.90;;
61962;SDS011;47927;42.646;23.096;2022-09-21T09:57:44;3.05;;;1.00;;
61962;SDS011;47927;42.646;23.096;2022-09-21T10:00:15;1.90;;;1.20;;
61962;SDS011;47927;42.646;23.096;2022-09-21T10:07:49;5.07;;;0.95;;
61962;SDS011;47927;42.646;23.096;2022-09-21T10:10:21;1.73;;;1.00;;
61962;SDS011;47927;42.646;23.096;2022-09-21T10:12:48;3.28;;;0.80;;
61962;SDS011;47927;42.646;23.096;2022-09-21T10:15:16;1.95;;;1.10;;
61962;SDS011;47927;42.646;23.096;2022-09-21T10:17:46;1.52;;;0.90;;
61962;SDS011;47927;42.646;23.096;2022-09-21T10:20:14;2.08;;;1.20;;
61962;SDS011;47927;42.646;23.096;2022-09-21T10:22:46;1.90;;;1.33;;
61962;SDS011;47927;42.646;23.096;2022-09-21T10:25:18;1.98;;;1.00;;
61962;SDS011;47927;42.646;23.096;2022-09-21T10:27:45;1.50;;;0.90;;
61962;SDS011;47927;42.646;23.096;2022-09-21T10:32:55;2.28;;;1.02;;
61962;SDS011;47927;42.646;23.096;2022-09-21T10:35:21;2.95;;;1.08;;
61962;SDS011;47927;42.646;23.096;2022-09-21T10:37:47;2.42;;;1.20;;
61962;SDS011;47927;42.646;23.096;2022-09-21T10:42:43;2.03;;;1.25;;
61962;SDS011;47927;42.646;23.096;2022-09-21T10:45:20;1.35;;;1.00;;
61962;SDS011;47927;42.646;23.096;2022-09-21T10:47:49;1.40;;;0.90;;
61962;SDS011;47927;42.646;23.096;2022-09-21T10:50:23;1.45;;;0.90;;
61962;SDS011;47927;42.646;23.096;2022-09-21T10:53:21;2.30;;;1.00;;
61962;SDS011;47927;42.646;23.096;2022-09-21T10:58:41;1.55;;;0.90;;
61962;SDS011;47927;42.646;23.096;2022-09-21T11:01:45;1.10;;;0.70;;
61962;SDS011;47927;42.646;23.096;2022-09-21T11:04:21;2.08;;;1.27;;
61962;SDS011;47927;42.646;23.096;2022-09-21T11:07:06;1.05;;;0.65;;
61962;SDS011;47927;42.646;23.096;2022-09-21T11:09:38;0.93;;;0.65;;
61962;SDS011;47927;42.646;23.096;2022-09-21T11:17:47;0.88;;;0.60;;
61962;SDS011;47927;42.646;23.096;2022-09-21T11:20:30;1.15;;;0.73;;
61962;SDS011;47927;42.646;23.096;2022-09-21T11:23:28;1.15;;;0.60;;
61962;SDS011;47927;42.646;23.096;2022-09-21T11:31:23;1.10;;;0.80;;
61962;SDS011;47927;42.646;23.096;2022-09-21T11:39:54;1.38;;;0.80;;
61962;SDS011;47927;42.646;23.096;2022-09-21T11:54:46;1.25;;;0.88;;
61962;SDS011;47927;42.646;23.096;2022-09-21T12:04:56;2.80;;;0.80;;
61962;SDS011;47927;42.646;23.096;2022-09-21T12:12:31;1.75;;;0.82;;
61962;SDS011;47927;42.646;23.096;2022-09-21T12:15:10;1.38;;;0.80;;
61962;SDS011;47927;42.646;23.096;2022-09-21T12:17:42;1.70;;;0.90;;
61962;SDS011;47927;42.646;23.096;2022-09-21T12:23:18;2.35;;;0.90;;
61962;SDS011;47927;42.646;23.096;2022-09-21T12:25:51;2.00;;;1.30;;
61962;SDS011;47927;42.646;23.096;2022-09-21T12:31:03;1.80;;;1.00;;
61962;SDS011;47927;42.646;23.096;2022-09-21T12:33:37;1.23;;;0.85;;
61962;SDS011;47927;42.646;23.096;2022-09-21T12:36:18;1.58;;;0.98;;
61962;SDS011;47927;42.646;23.096;2022-09-21T12:39:02;1.23;;;0.90;;
61962;SDS011;47927;42.646;23.096;2022-09-21T12:47:18;1.35;;;0.80;;
61962;SDS011;47927;42.646;23.096;2022-09-21T12:49:52;1.25;;;0.90;;
61962;SDS011;47927;42.646;23.096;2022-09-21T12:52:24;2.08;;;1.20;;
61962;SDS011;47927;42.646;23.096;2022-09-21T12:55:00;1.67;;;1.00;;
61962;SDS011;47927;42.646;23.096;2022-09-21T13:00:34;2.13;;;1.02;;
61962;SDS011;47927;42.646;23.096;2022-09-21T13:03:11;1.25;;;0.90;;
61962;SDS011;47927;42.646;23.096;2022-09-21T13:08:37;1.25;;;0.80;;
61962;SDS011;47927;42.646;23.096;2022-09-21T13:11:09;3.47;;;1.08;;
61962;SDS011;47927;42.646;23.096;2022-09-21T13:16:31;2.00;;;1.10;;
61962;SDS011;47927;42.646;23.096;2022-09-21T13:19:00;1.87;;;1.30;;
61962;SDS011;47927;42.646;23.096;2022-09-21T13:21:38;10.07;;;1.48;;
61962;SDS011;47927;42.646;23.096;2022-09-21T13:24:05;1.85;;;0.88;;
61962;SDS011;47927;42.646;23.096;2022-09-21T13:26:53;2.22;;;1.25;;
61962;SDS011;47927;42.646;23.096;2022-09-21T13:31:59;1.55;;;1.00;;
61962;SDS011;47927;42.646;23.096;2022-09-21T13:34:40;1.90;;;0.90;;
61962;SDS011;47927;42.646;23.096;2022-09-21T13:44:53;1.88;;;1.10;;
61962;SDS011;47927;42.646;23.096;2022-09-21T13:47:35;2.33;;;0.80;;
61962;SDS011;47927;42.646;23.096;2022-09-21T13:50:18;1.52;;;0.90;;
61962;SDS011;47927;42.646;23.096;2022-09-21T13:52:55;1.15;;;0.80;;
61962;SDS011;47927;42.646;23.096;2022-09-21T13:58:01;1.38;;;0.90;;
61962;SDS011;47927;42.646;23.096;2022-09-21T14:00:39;3.75;;;1.05;;
61962;SDS011;47927;42.646;23.096;2022-09-21T14:03:22;1.60;;;0.90;;
61962;SDS011;47927;42.646;23.096;2022-09-21T14:05:51;1.50;;;0.82;;
61962;SDS011;47927;42.646;23.096;2022-09-21T14:08:21;1.87;;;1.20;;
61962;SDS011;47927;42.646;23.096;2022-09-21T14:10:52;2.58;;;1.23;;
61962;SDS011;47927;42.646;23.096;2022-09-21T14:18:50;2.50;;;1.30;;
61962;SDS011;47927;42.646;23.096;2022-09-21T14:21:16;1.77;;;1.13;;
61962;SDS011;47927;42.646;23.096;2022-09-21T14:26:32;2.30;;;1.33;;
61962;SDS011;47927;42.646;23.096;2022-09-21T14:29:50;3.13;;;1.60;;
61962;SDS011;47927;42.646;23.096;2022-09-21T14:32:10;3.15;;;1.40;;
61962;SDS011;47927;42.646;23.096;2022-09-21T14:34:40;2.53;;;1.40;;
61962;SDS011;47927;42.646;23.096;2022-09-21T14:39:58;2.20;;;1.38;;
61962;SDS011;47927;42.646;23.096;2022-09-21T14:42:29;2.67;;;1.30;;
61962;SDS011;47927;42.646;23.096;2022-09-21T14:44:59;2.58;;;1.30;;
61962;SDS011;47927;42.646;23.096;2022-09-21T14:50:32;3.42;;;1.60;;
61962;SDS011;47927;42.646;23.096;2022-09-21T15:01:36;4.28;;;1.50;;
61962;SDS011;47927;42.646;23.096;2022-09-21T15:10:36;3.70;;;2.13;;
61962;SDS011;47927;42.646;23.096;2022-09-21T15:13:26;2.40;;;1.30;;
61962;SDS011;47927;42.646;23.096;2022-09-21T15:18:48;2.60;;;1.40;;
61962;SDS011;47927;42.646;23.096;2022-09-21T15:21:20;3.40;;;1.55;;
61962;SDS011;47927;42.646;23.096;2022-09-21T15:23:54;2.15;;;1.17;;
61962;SDS011;47927;42.646;23.096;2022-09-21T15:26:21;2.38;;;1.55;;
61962;SDS011;47927;42.646;23.096;2022-09-21T15:28:55;2.25;;;1.33;;
61962;SDS011;47927;42.646;23.096;2022-09-21T15:31:23;2.28;;;1.30;;
61962;SDS011;47927;42.646;23.096;2022-09-21T15:33:50;2.97;;;1.60;;
61962;SDS011;47927;42.646;23.096;2022-09-21T15:36:21;3.28;;;1.52;;
61962;SDS011;47927;42.646;23.096;2022-09-21T15:38:49;4.38;;;1.40;;
61962;SDS011;47927;42.646;23.096;2022-09-21T15:44:16;5.40;;;1.40;;
61962;SDS011;47927;42.646;23.096;2022-09-21T15:46:47;5.53;;;1.50;;
61962;SDS011;47927;42.646;23.096;2022-09-21T15:49:18;2.05;;;1.20;;
61962;SDS011;47927;42.646;23.096;2022-09-21T15:51:49;2.53;;;1.60;;
61962;SDS011;47927;42.646;23.096;2022-09-21T15:54:41;2.75;;;1.33;;
61962;SDS011;47927;42.646;23.096;2022-09-21T15:57:21;3.13;;;1.35;;
61962;SDS011;47927;42.646;23.096;2022-09-21T15:59:58;2.55;;;1.50;;
61962;SDS011;47927;42.646;23.096;2022-09-21T16:02:27;2.05;;;1.23;;
61962;SDS011;47927;42.646;23.096;2022-09-21T16:04:58;4.30;;;1.88;;
61962;SDS011;47927;42.646;23.096;2022-09-21T16:07:25;2.63;;;1.55;;
61962;SDS011;47927;42.646;23.096;2022-09-21T16:09:55;4.05;;;2.00;;
61962;SDS011;47927;42.646;23.096;2022-09-21T16:14:49;4.97;;;2.28;;
61962;SDS011;47927;42.646;23.096;2022-09-21T16:17:19;4.25;;;2.08;;
61962;SDS011;47927;42.646;23.096;2022-09-21T16:22:15;2.55;;;1.52;;
61962;SDS011;47927;42.646;23.096;2022-09-21T16:24:54;7.93;;;2.00;;
61962;SDS011;47927;42.646;23.096;2022-09-21T16:27:29;3.55;;;1.67;;
61962;SDS011;47927;42.646;23.096;2022-09-21T16:29:57;3.50;;;2.00;;
61962;SDS011;47927;42.646;23.096;2022-09-21T16:35:41;3.70;;;1.90;;
61962;SDS011;47927;42.646;23.096;2022-09-21T16:37:42;3.85;;;1.90;;
61962;SDS011;47927;42.646;23.096;2022-09-21T16:40:07;3.70;;;2.20;;
61962;SDS011;47927;42.646;23.096;2022-09-21T16:42:33;3.55;;;2.05;;
61962;SDS011;47927;42.646;23.096;2022-09-21T16:44:59;3.30;;;1.83;;
61962;SDS011;47927;42.646;23.096;2022-09-21T16:47:35;2.90;;;1.70;;
61962;SDS011;47927;42.646;23.096;2022-09-21T16:50:01;3.17;;;1.80;;
61962;SDS011;47927;42.646;23.096;2022-09-21T16:52:31;4.15;;;2.30;;
61962;SDS011;47927;42.646;23.096;2022-09-21T16:54:57;3.13;;;1.75;;
61962;SDS011;47927;42.646;23.096;2022-09-21T16:57:41;3.70;;;2.03;;
61962;SDS011;47927;42.646;23.096;2022-09-21T17:00:10;5.45;;;2.63;;
61962;SDS011;47927;42.646;23.096;2022-09-21T17:02:37;3.47;;;2.17;;
61962;SDS011;47927;42.646;23.096;2022-09-21T17:05:09;3.83;;;2.55;;
61962;SDS011;47927;42.646;23.096;2022-09-21T17:07:37;3.90;;;2.55;;
61962;SDS011;47927;42.646;23.096;2022-09-21T17:10:21;4.50;;;2.78;;
61962;SDS011;47927;42.646;23.096;2022-09-21T17:12:53;4.00;;;2.60;;
61962;SDS011;47927;42.646;23.096;2022-09-21T17:15:20;3.45;;;2.30;;
61962;SDS011;47927;42.646;23.096;2022-09-21T17:17:47;3.30;;;2.22;;
61962;SDS011;47927;42.646;23.096;2022-09-21T17:20:16;3.65;;;2.28;;
61962;SDS011;47927;42.646;23.096;2022-09-21T17:22:47;5.13;;;3.40;;
61962;SDS011;47927;42.646;23.096;2022-09-21T17:25:13;3.65;;;2.47;;
61962;SDS011;47927;42.646;23.096;2022-09-21T17:27:38;4.97;;;2.55;;
61962;SDS011;47927;42.646;23.096;2022-09-21T17:30:09;8.45;;;2.67;;
61962;SDS011;47927;42.646;23.096;2022-09-21T17:32:37;4.03;;;2.53;;
61962;SDS011;47927;42.646;23.096;2022-09-21T17:38:01;3.05;;;2.10;;
61962;SDS011;47927;42.646;23.096;2022-09-21T17:40:27;7.22;;;2.72;;
61962;SDS011;47927;42.646;23.096;2022-09-21T17:43:38;3.42;;;2.28;;
61962;SDS011;47927;42.646;23.096;2022-09-21T17:46:12;3.45;;;2.20;;
61962;SDS011;47927;42.646;23.096;2022-09-21T17:48:45;3.50;;;1.90;;
61962;SDS011;47927;42.646;23.096;2022-09-21T17:51:10;3.25;;;1.75;;
61962;SDS011;47927;42.646;23.096;2022-09-21T17:53:56;4.10;;;2.42;;
61962;SDS011;47927;42.646;23.096;2022-09-21T17:58:59;3.80;;;2.17;;
61962;SDS011;47927;42.646;23.096;2022-09-21T18:01:30;3.10;;;2.00;;
61962;SDS011;47927;42.646;23.096;2022-09-21T18:04:01;4.13;;;2.28;;
61962;SDS011;47927;42.646;23.096;2022-09-21T18:06:27;4.60;;;2.58;;
61962;SDS011;47927;42.646;23.096;2022-09-21T18:08:54;4.57;;;2.65;;
61962;SDS011;47927;42.646;23.096;2022-09-21T18:19:34;5.75;;;3.25;;
61962;SDS011;47927;42.646;23.096;2022-09-21T18:22:11;3.83;;;2.40;;
61962;SDS011;47927;42.646;23.096;2022-09-21T18:24:38;5.50;;;2.83;;
61962;SDS011;47927;42.646;23.096;2022-09-21T18:27:04;4.53;;;2.78;;
61962;SDS011;47927;42.646;23.096;2022-09-21T18:29:30;4.97;;;2.97;;
61962;SDS011;47927;42.646;23.096;2022-09-21T18:43:11;6.82;;;3.60;;
61962;SDS011;47927;42.646;23.096;2022-09-21T18:45:59;4.50;;;3.00;;
61962;SDS011;47927;42.646;23.096;2022-09-21T18:48:50;4.70;;;2.80;;
61962;SDS011;47927;42.646;23.096;2022-09-21T18:53:54;6.95;;;3.15;;
61962;SDS011;47927;42.646;23.096;2022-09-21T18:56:22;5.60;;;2.72;;
61962;SDS011;47927;42.646;23.096;2022-09-21T18:58:53;5.28;;;3.22;;
61962;SDS011;47927;42.646;23.096;2022-09-21T19:01:22;5.45;;;3.47;;
61962;SDS011;47927;42.646;23.096;2022-09-21T19:03:48;5.47;;;2.85;;